createdAt,value
2023-07-15T00:01:37.553Z,7.30
2023-07-15T00:04:12.713Z,3.50
2023-07-15T00:06:41.341Z,4.55
2023-07-15T00:09:10.608Z,5.72
2023-07-15T00:11:43.821Z,3.20
2023-07-15T00:14:20.495Z,3.27
2023-07-15T00:16:48.519Z,4.78
2023-07-15T00:19:18.942Z,5.40
2023-07-15T00:21:48.152Z,3.15
2023-07-15T00:24:16.263Z,5.47
2023-07-15T00:26:45.106Z,4.33
2023-07-15T00:29:13.167Z,4.40
2023-07-15T00:31:41.108Z,5.68
2023-07-15T00:34:09.269Z,6.20
2023-07-15T00:36:36.891Z,6.22
2023-07-15T00:39:06.170Z,4.30
2023-07-15T00:41:36.111Z,7.20
2023-07-15T00:44:04.582Z,4.90
2023-07-15T00:46:50.740Z,6.53
2023-07-15T00:49:25.194Z,5.25
2023-07-15T00:51:59.986Z,4.20
2023-07-15T00:54:29.793Z,6.40
2023-07-15T00:57:01.378Z,5.00
2023-07-15T00:59:31.123Z,4.78
2023-07-15T01:01:59.179Z,4.00
2023-07-15T01:04:27.896Z,5.43
2023-07-15T01:06:56.299Z,3.35
2023-07-15T01:09:26.263Z,5.40
2023-07-15T01:11:54.025Z,6.03
2023-07-15T01:14:21.667Z,3.80
2023-07-15T01:16:50.676Z,5.07
2023-07-15T01:19:20.018Z,3.22
2023-07-15T01:21:51.910Z,6.70
2023-07-15T01:24:23.452Z,4.20
2023-07-15T01:26:59.192Z,3.53
2023-07-15T01:29:27.276Z,3.47
2023-07-15T01:31:54.849Z,5.03
2023-07-15T01:34:22.739Z,6.20
2023-07-15T01:36:50.657Z,3.42
2023-07-15T01:39:18.575Z,5.07
2023-07-15T01:41:46.194Z,10.33
2023-07-15T01:44:15.514Z,3.87
2023-07-15T01:46:43.063Z,6.10
2023-07-15T01:49:10.700Z,4.47
2023-07-15T01:51:38.703Z,4.97
2023-07-15T01:54:06.310Z,6.33
2023-07-15T01:56:33.962Z,4.37
2023-07-15T01:59:01.797Z,3.72
2023-07-15T02:01:29.675Z,3.25
2023-07-15T02:03:57.813Z,5.05
2023-07-15T02:06:25.816Z,3.97
2023-07-15T02:08:53.383Z,4.57
2023-07-15T02:11:21.719Z,3.47
2023-07-15T02:13:51.555Z,5.43
2023-07-15T02:16:20.507Z,3.37
2023-07-15T02:18:49.608Z,4.00
2023-07-15T02:21:17.258Z,3.78
2023-07-15T02:23:44.963Z,6.07
2023-07-15T02:26:13.686Z,3.65
2023-07-15T02:28:41.476Z,4.45
2023-07-15T02:31:09.071Z,5.13
2023-07-15T02:33:36.912Z,6.28
2023-07-15T02:36:05.846Z,4.62
2023-07-15T02:38:33.700Z,4.72
2023-07-15T02:41:03.037Z,5.12
2023-07-15T02:43:30.551Z,4.40
2023-07-15T02:45:58.258Z,3.92
2023-07-15T02:48:26.159Z,4.87
2023-07-15T02:50:57.595Z,4.18
2023-07-15T02:53:25.232Z,4.87
2023-07-15T02:55:53.128Z,3.70
2023-07-15T02:58:20.753Z,4.28
2023-07-15T03:00:51.790Z,3.50
2023-07-15T03:03:21.675Z,4.43
2023-07-15T03:05:50.446Z,4.93
2023-07-15T03:08:18.128Z,6.50
2023-07-15T03:10:46.925Z,4.50
2023-07-15T03:13:14.705Z,4.15
2023-07-15T03:15:43.781Z,4.37
2023-07-15T03:18:12.346Z,4.43
2023-07-15T03:20:40.168Z,4.50
2023-07-15T03:23:07.940Z,4.50
2023-07-15T03:25:36.889Z,6.28
2023-07-15T03:28:04.744Z,4.05
2023-07-15T03:30:32.482Z,7.25
2023-07-15T03:33:00.470Z,3.90
2023-07-15T03:35:28.072Z,6.12
2023-07-15T03:37:55.607Z,3.58
2023-07-15T03:40:23.506Z,7.87
2023-07-15T03:42:51.046Z,4.95
2023-07-15T03:45:18.614Z,3.60
2023-07-15T03:47:46.501Z,4.05
2023-07-15T03:50:14.077Z,3.55
2023-07-15T03:52:41.658Z,4.93
2023-07-15T03:55:09.759Z,4.32
2023-07-15T03:57:37.351Z,4.30
2023-07-15T04:00:16.088Z,5.18
2023-07-15T04:02:50.657Z,3.30
2023-07-15T04:05:18.461Z,5.55
2023-07-15T04:07:47.064Z,4.30
2023-07-15T04:10:15.178Z,5.13
2023-07-15T04:12:42.755Z,4.30
2023-07-15T04:15:10.762Z,5.82
2023-07-15T04:17:38.537Z,4.30
2023-07-15T04:20:15.603Z,5.07
2023-07-15T04:22:44.110Z,5.43
2023-07-15T04:25:16.063Z,4.60
2023-07-15T04:27:44.044Z,4.30
2023-07-15T04:30:12.360Z,3.97
2023-07-15T04:32:40.321Z,4.57
2023-07-15T04:35:08.496Z,4.53
2023-07-15T04:37:36.684Z,5.43
2023-07-15T04:40:05.448Z,3.67
2023-07-15T04:42:33.382Z,5.22
2023-07-15T04:45:00.881Z,5.53
2023-07-15T04:47:28.515Z,5.90
2023-07-15T04:49:56.398Z,10.35
2023-07-15T04:52:23.930Z,3.87
2023-07-15T04:54:51.478Z,11.18
2023-07-15T04:57:20.371Z,4.05
2023-07-15T04:59:49.943Z,5.30
2023-07-15T05:02:17.737Z,6.15
2023-07-15T05:04:45.660Z,3.47
2023-07-15T05:07:13.194Z,4.35
2023-07-15T05:09:41.112Z,5.50
2023-07-15T05:12:11.620Z,6.93
2023-07-15T05:14:39.191Z,6.95
2023-07-15T05:17:08.727Z,6.12
2023-07-15T05:19:37.049Z,8.23
2023-07-15T05:22:05.780Z,6.30
2023-07-15T05:24:33.436Z,9.33
2023-07-15T05:27:02.817Z,8.45
2023-07-15T05:29:30.335Z,7.45
2023-07-15T05:31:57.952Z,6.37
2023-07-15T05:34:25.933Z,7.78
2023-07-15T05:36:53.477Z,7.43
2023-07-15T05:39:23.308Z,10.48
2023-07-15T05:41:51.477Z,8.48
2023-07-15T05:44:19.055Z,8.95
2023-07-15T05:46:46.716Z,8.55
2023-07-15T05:49:14.607Z,9.40
2023-07-15T05:51:42.178Z,10.23
2023-07-15T05:54:09.780Z,7.10
2023-07-15T05:56:37.595Z,6.93
2023-07-15T05:59:05.011Z,8.93
2023-07-15T06:01:32.520Z,8.20
2023-07-15T06:04:00.545Z,8.38
2023-07-15T06:06:28.202Z,8.23
2023-07-15T06:08:55.797Z,6.05
2023-07-15T06:11:23.672Z,7.15
2023-07-15T06:13:51.238Z,9.27
2023-07-15T06:16:19.196Z,6.53
2023-07-15T06:18:47.118Z,7.32
2023-07-15T06:21:14.921Z,7.75
2023-07-15T06:23:42.617Z,5.37
2023-07-15T06:26:10.603Z,7.43
2023-07-15T06:28:38.247Z,6.35
2023-07-15T06:31:09.870Z,7.97
2023-07-15T06:33:38.359Z,5.82
2023-07-15T06:36:07.950Z,9.68
2023-07-15T06:38:35.508Z,5.40
2023-07-15T06:41:03.380Z,7.40
2023-07-15T06:43:31.481Z,6.00
2023-07-15T06:45:59.013Z,6.57
2023-07-15T06:48:26.878Z,6.85
2023-07-15T06:50:54.505Z,8.50
2023-07-15T06:53:22.039Z,7.20
2023-07-15T06:55:53.958Z,8.20
2023-07-15T06:58:26.190Z,6.28
2023-07-15T07:00:54.375Z,5.82
2023-07-15T07:03:21.968Z,5.40
2023-07-15T07:05:49.525Z,5.65
2023-07-15T07:08:17.373Z,5.43
2023-07-15T07:10:45.112Z,5.45
2023-07-15T07:13:12.676Z,7.12
2023-07-15T07:15:40.482Z,5.60
2023-07-15T07:18:08.151Z,11.12
2023-07-15T07:20:35.910Z,7.62
2023-07-15T07:23:03.941Z,6.90
2023-07-15T07:25:31.542Z,8.52
2023-07-15T07:27:59.088Z,8.63
2023-07-15T07:30:28.618Z,7.95
2023-07-15T07:32:56.195Z,7.75
2023-07-15T07:35:23.838Z,8.68
2023-07-15T07:37:51.685Z,8.18
2023-07-15T07:40:19.233Z,6.97
2023-07-15T07:42:46.815Z,8.38
2023-07-15T07:45:16.008Z,8.45
2023-07-15T07:47:43.705Z,8.10
2023-07-15T07:50:11.996Z,6.80
2023-07-15T07:52:39.900Z,6.87
2023-07-15T07:55:07.856Z,6.60
2023-07-15T07:57:35.413Z,6.90
2023-07-15T08:00:03.496Z,7.35
2023-07-15T08:02:32.829Z,7.82
2023-07-15T08:05:00.748Z,9.00
2023-07-15T08:07:28.301Z,7.22
2023-07-15T08:09:55.901Z,7.78
2023-07-15T08:12:23.764Z,9.63
2023-07-15T08:14:51.334Z,9.32
2023-07-15T08:17:19.095Z,7.60
2023-07-15T08:19:46.942Z,9.20
2023-07-15T08:22:14.513Z,9.13
2023-07-15T08:24:42.081Z,7.80
2023-07-15T08:27:09.972Z,9.52
2023-07-15T08:29:37.561Z,8.37
2023-07-15T08:32:05.629Z,8.48
2023-07-15T08:34:34.402Z,8.23
2023-07-15T08:37:01.947Z,9.38
2023-07-15T08:39:29.525Z,8.52
2023-07-15T08:41:59.707Z,11.87
2023-07-15T08:44:27.375Z,8.98
2023-07-15T08:46:56.879Z,13.15
2023-07-15T08:49:27.094Z,9.30
2023-07-15T08:51:55.031Z,8.90
2023-07-15T08:54:22.968Z,8.77
2023-07-15T08:56:50.896Z,10.73
2023-07-15T08:59:19.810Z,10.63
2023-07-15T09:01:47.419Z,16.85
2023-07-15T09:04:15.437Z,9.68
2023-07-15T09:06:43.520Z,10.57
2023-07-15T09:09:13.574Z,12.10
2023-07-15T09:11:43.800Z,9.77
2023-07-15T09:14:18.663Z,11.30
2023-07-15T09:16:46.741Z,10.82
2023-07-15T09:19:14.626Z,10.40
2023-07-15T09:21:56.324Z,10.90
2023-07-15T09:24:24.801Z,10.40
2023-07-15T09:26:58.365Z,10.73
2023-07-15T09:29:26.205Z,10.25
2023-07-15T09:31:55.333Z,10.67
2023-07-15T09:34:25.530Z,10.77
2023-07-15T09:36:54.649Z,11.45
2023-07-15T09:39:24.265Z,10.38
2023-07-15T09:42:03.410Z,11.05
2023-07-15T09:44:49.323Z,10.63
2023-07-15T09:47:16.957Z,13.13
2023-07-15T09:49:44.782Z,15.68
2023-07-15T09:52:15.308Z,10.00
2023-07-15T09:54:43.851Z,10.73
2023-07-15T09:57:17.017Z,10.23
2023-07-15T09:59:49.520Z,12.25
2023-07-15T10:02:42.477Z,9.65
2023-07-15T10:05:14.434Z,9.57
2023-07-15T10:07:42.698Z,9.52
2023-07-15T10:10:10.602Z,11.67
2023-07-15T10:12:39.575Z,10.05
2023-07-15T10:15:08.651Z,9.88
2023-07-15T10:17:38.145Z,10.23
2023-07-15T10:20:16.393Z,10.98
2023-07-15T10:22:45.556Z,12.07
2023-07-15T10:25:16.711Z,8.60
2023-07-15T10:27:44.992Z,10.80
2023-07-15T10:30:17.173Z,9.10
2023-07-15T10:33:04.897Z,8.27
2023-07-15T10:35:34.160Z,8.10
2023-07-15T10:38:22.028Z,8.48
2023-07-15T10:40:49.964Z,10.48
2023-07-15T10:43:22.568Z,8.55
2023-07-15T10:45:54.804Z,9.60
2023-07-15T10:48:23.611Z,9.23
2023-07-15T10:50:55.165Z,9.63
2023-07-15T10:53:28.903Z,10.07
2023-07-15T10:55:59.449Z,8.30
2023-07-15T10:58:28.192Z,9.93
2023-07-15T11:01:14.676Z,9.43
2023-07-15T11:03:43.626Z,10.40
2023-07-15T11:06:13.228Z,9.38
2023-07-15T11:08:42.353Z,9.52
2023-07-15T11:11:11.996Z,9.63
2023-07-15T11:13:42.037Z,8.23
2023-07-15T11:16:10.239Z,9.07
2023-07-15T11:18:37.830Z,8.85
2023-07-15T11:21:06.412Z,9.90
2023-07-15T11:23:34.648Z,9.27
2023-07-15T11:26:11.822Z,8.60
2023-07-15T11:28:52.510Z,7.78
2023-07-15T11:31:23.070Z,9.30
2023-07-15T11:33:54.174Z,8.10
2023-07-15T11:36:21.901Z,9.00
2023-07-15T11:38:49.426Z,7.67
2023-07-15T11:41:19.045Z,9.40
2023-07-15T11:43:46.632Z,9.05
2023-07-15T11:46:17.418Z,9.45
2023-07-15T11:48:47.051Z,9.02
2023-07-15T11:51:14.586Z,8.17
2023-07-15T11:53:45.691Z,9.27
2023-07-15T11:56:33.294Z,9.27
2023-07-15T11:59:01.095Z,10.40
2023-07-15T12:01:29.643Z,9.45
2023-07-15T12:03:57.657Z,9.97
2023-07-15T12:06:27.559Z,10.63
2023-07-15T12:09:11.882Z,10.48
2023-07-15T12:11:40.117Z,10.25
2023-07-15T12:14:11.541Z,10.57
2023-07-15T12:16:40.595Z,12.00
2023-07-15T12:19:13.674Z,8.68
2023-07-15T12:21:41.875Z,9.93
2023-07-15T12:24:09.950Z,9.20
2023-07-15T12:26:37.745Z,9.70
2023-07-15T12:29:05.364Z,8.67
2023-07-15T12:31:33.248Z,9.15
2023-07-15T12:34:00.779Z,10.05
2023-07-15T12:36:28.328Z,9.30
2023-07-15T12:38:56.261Z,9.20
2023-07-15T12:41:23.824Z,8.50
2023-07-15T12:43:51.333Z,9.07
2023-07-15T12:46:19.618Z,9.20
2023-07-15T12:48:50.308Z,11.63
2023-07-15T12:51:18.062Z,8.85
2023-07-15T12:53:45.946Z,9.87
2023-07-15T12:56:15.538Z,8.32
2023-07-15T12:58:43.795Z,9.90
2023-07-15T13:01:11.696Z,10.15
2023-07-15T13:03:39.487Z,9.18
2023-07-15T13:06:07.331Z,9.83
2023-07-15T13:08:38.112Z,10.35
2023-07-15T13:11:06.638Z,9.68
2023-07-15T13:13:34.234Z,9.82
2023-07-15T13:16:02.248Z,9.98
2023-07-15T13:18:29.841Z,8.60
2023-07-15T13:20:57.392Z,8.60
2023-07-15T13:23:25.302Z,9.15
2023-07-15T13:25:52.929Z,9.88
2023-07-15T13:28:20.532Z,10.75
2023-07-15T13:30:48.501Z,8.43
2023-07-15T13:33:16.091Z,8.57
2023-07-15T13:35:43.619Z,9.82
2023-07-15T13:38:11.547Z,10.63
2023-07-15T13:40:39.158Z,9.98
2023-07-15T13:43:06.742Z,9.83
2023-07-15T13:45:34.750Z,10.45
2023-07-15T13:48:02.467Z,11.18
2023-07-15T13:50:30.152Z,10.40
2023-07-15T13:52:58.041Z,9.50
2023-07-15T13:55:25.614Z,9.10
2023-07-15T13:57:53.158Z,9.32
2023-07-15T14:00:20.987Z,10.52
2023-07-15T14:02:48.884Z,9.70
2023-07-15T14:05:16.968Z,9.05
2023-07-15T14:07:45.976Z,9.00
2023-07-15T14:10:13.564Z,9.68
2023-07-15T14:12:41.489Z,9.38
2023-07-15T14:15:10.167Z,8.73
2023-07-15T14:17:37.754Z,10.27
2023-07-15T14:20:06.260Z,9.50
2023-07-15T14:22:47.149Z,9.48
2023-07-15T14:25:17.229Z,9.45
2023-07-15T14:27:45.128Z,9.65
2023-07-15T14:30:13.056Z,10.00
2023-07-15T14:32:40.907Z,9.20
2023-07-15T14:35:08.979Z,8.93
2023-07-15T14:37:36.541Z,9.43
2023-07-15T14:40:06.190Z,9.75
2023-07-15T14:42:33.805Z,9.70
2023-07-15T14:45:01.379Z,8.73
2023-07-15T14:47:29.302Z,10.65
2023-07-15T14:49:56.895Z,9.70
2023-07-15T14:52:24.439Z,9.60
2023-07-15T14:54:52.869Z,10.25
2023-07-15T14:57:20.404Z,9.70
2023-07-15T14:59:47.991Z,10.13
2023-07-15T15:02:15.835Z,9.95
2023-07-15T15:04:43.377Z,9.75
2023-07-15T15:07:10.919Z,9.32
2023-07-15T15:09:38.751Z,8.83
2023-07-15T15:12:07.130Z,8.90
2023-07-15T15:14:36.103Z,9.43
2023-07-15T15:17:05.347Z,9.20
2023-07-15T15:19:32.931Z,9.75
2023-07-15T15:22:00.738Z,10.17
2023-07-15T15:24:29.072Z,9.30
2023-07-15T15:27:00.169Z,8.25
2023-07-15T15:29:28.184Z,7.65
2023-07-15T15:31:56.840Z,8.73
2023-07-15T15:34:24.446Z,8.17
2023-07-15T15:36:52.422Z,9.68
2023-07-15T15:39:20.357Z,9.10
2023-07-15T15:41:47.916Z,8.32
2023-07-15T15:44:15.750Z,7.62
2023-07-15T15:46:43.443Z,8.90
2023-07-15T15:49:11.051Z,7.85
2023-07-15T15:51:39.277Z,8.43
2023-07-15T15:54:08.006Z,8.25
2023-07-15T15:56:35.641Z,8.88
2023-07-15T15:59:03.665Z,8.37
2023-07-15T16:01:31.435Z,7.97
2023-07-15T16:03:59.634Z,8.88
2023-07-15T16:06:27.264Z,9.35
2023-07-15T16:08:55.166Z,8.35
2023-07-15T16:11:23.020Z,8.03
2023-07-15T16:13:50.555Z,7.62
2023-07-15T16:16:18.067Z,8.30
2023-07-15T16:18:45.908Z,8.82
2023-07-15T16:21:13.701Z,9.85
2023-07-15T16:23:41.597Z,8.33
2023-07-15T16:26:09.400Z,9.05
2023-07-15T16:28:36.935Z,8.95
2023-07-15T16:31:04.532Z,8.63
2023-07-15T16:33:32.353Z,9.00
2023-07-15T16:35:59.896Z,7.80
2023-07-15T16:38:27.430Z,7.97
2023-07-15T16:40:55.357Z,8.57
2023-07-15T16:43:24.182Z,8.10
2023-07-15T16:45:52.092Z,8.73
2023-07-15T16:48:20.003Z,8.23
2023-07-15T16:50:47.616Z,9.18
2023-07-15T16:53:15.240Z,10.05
2023-07-15T16:55:43.152Z,8.30
2023-07-15T16:58:10.756Z,8.32
2023-07-15T17:00:38.387Z,7.50
2023-07-15T17:03:06.320Z,9.07
2023-07-15T17:05:33.951Z,10.13
2023-07-15T17:08:01.493Z,8.68
2023-07-15T17:10:29.303Z,8.60
2023-07-15T17:12:56.849Z,8.90
2023-07-15T17:15:24.381Z,8.68
2023-07-15T17:17:52.469Z,9.02
2023-07-15T17:20:20.191Z,8.65
2023-07-15T17:22:47.784Z,8.45
2023-07-15T17:25:15.642Z,7.80
2023-07-15T17:27:43.242Z,11.00
2023-07-15T17:30:11.100Z,8.82
2023-07-15T17:32:39.074Z,9.05
2023-07-15T17:35:07.175Z,8.40
2023-07-15T17:37:34.738Z,7.80
2023-07-15T17:40:02.963Z,9.27
2023-07-15T17:42:30.483Z,9.90
2023-07-15T17:44:58.068Z,9.48
2023-07-15T17:47:25.941Z,9.68
2023-07-15T17:49:53.521Z,10.67
2023-07-15T17:52:21.162Z,9.73
2023-07-15T17:54:49.016Z,9.98
2023-07-15T17:57:16.685Z,9.52
2023-07-15T17:59:44.766Z,9.82
2023-07-15T18:02:13.797Z,9.73
2023-07-15T18:04:50.073Z,9.93
2023-07-15T18:07:17.918Z,10.23
2023-07-15T18:09:47.404Z,10.25
2023-07-15T18:12:15.053Z,13.15
2023-07-15T18:14:42.650Z,11.20
2023-07-15T18:17:10.589Z,10.82
2023-07-15T18:19:38.119Z,10.60
2023-07-15T18:22:06.725Z,10.15
2023-07-15T18:24:34.603Z,10.38
2023-07-15T18:27:02.160Z,10.43
2023-07-15T18:29:29.864Z,12.80
2023-07-15T18:31:57.791Z,10.40
2023-07-15T18:34:25.745Z,12.48
2023-07-15T18:36:53.412Z,10.82
2023-07-15T18:39:21.293Z,12.70
2023-07-15T18:41:48.886Z,12.37
2023-07-15T18:44:16.503Z,12.00
2023-07-15T18:46:44.714Z,11.45
2023-07-15T18:49:12.589Z,13.30
2023-07-15T18:51:40.199Z,15.93
2023-07-15T18:54:08.047Z,12.07
2023-07-15T18:56:36.497Z,11.40
2023-07-15T18:59:04.209Z,12.45
2023-07-15T19:01:32.280Z,11.45
2023-07-15T19:03:59.940Z,11.33
2023-07-15T19:06:27.557Z,11.75
2023-07-15T19:08:55.941Z,12.27
2023-07-15T19:11:25.587Z,11.40
2023-07-15T19:13:53.239Z,11.52
2023-07-15T19:16:21.477Z,10.27
2023-07-15T19:18:49.111Z,9.75
2023-07-15T19:21:17.655Z,11.10
2023-07-15T19:23:45.777Z,13.52
2023-07-15T19:26:13.356Z,11.68
2023-07-15T19:28:40.903Z,11.47
2023-07-15T19:31:08.820Z,11.00
2023-07-15T19:33:38.143Z,10.75
2023-07-15T19:36:05.990Z,11.15
2023-07-15T19:38:34.914Z,12.77
2023-07-15T19:41:02.525Z,10.67
2023-07-15T19:43:30.160Z,9.90
2023-07-15T19:45:58.059Z,10.02
2023-07-15T19:48:25.615Z,10.63
2023-07-15T19:50:53.164Z,10.05
2023-07-15T19:53:21.053Z,11.07
2023-07-15T19:55:48.630Z,11.38
2023-07-15T19:58:16.197Z,12.25
2023-07-15T20:00:45.028Z,10.00
2023-07-15T20:03:13.100Z,10.70
2023-07-15T20:05:40.795Z,9.83
2023-07-15T20:08:08.373Z,11.05
2023-07-15T20:10:36.251Z,10.35
2023-07-15T20:13:04.110Z,11.02
2023-07-15T20:15:31.684Z,11.43
2023-07-15T20:17:59.549Z,11.10
2023-07-15T20:20:27.215Z,11.30
2023-07-15T20:22:54.845Z,10.65
2023-07-15T20:25:23.561Z,13.43
2023-07-15T20:27:51.108Z,10.82
2023-07-15T20:30:18.730Z,11.00
2023-07-15T20:32:46.885Z,10.80
2023-07-15T20:35:16.622Z,11.68
2023-07-15T20:37:44.224Z,13.88
2023-07-15T20:40:12.540Z,11.23
2023-07-15T20:42:40.193Z,11.87
2023-07-15T20:45:08.371Z,10.88
2023-07-15T20:47:44.206Z,11.50
2023-07-15T20:50:12.479Z,11.25
2023-07-15T20:52:40.451Z,11.65
2023-07-15T20:55:09.551Z,13.17
2023-07-15T20:57:37.692Z,11.27
2023-07-15T21:00:06.608Z,13.23
2023-07-15T21:02:34.222Z,10.68
2023-07-15T21:05:01.873Z,10.93
2023-07-15T21:07:29.763Z,10.50
2023-07-15T21:09:57.362Z,10.40
2023-07-15T21:12:26.274Z,12.77
2023-07-15T21:14:54.164Z,11.68
2023-07-15T21:17:21.723Z,11.35
2023-07-15T21:19:50.687Z,11.23
2023-07-15T21:22:18.647Z,12.37
2023-07-15T21:24:46.174Z,12.77
2023-07-15T21:27:13.938Z,12.15
2023-07-15T21:29:43.212Z,11.23
2023-07-15T21:32:10.883Z,11.53
2023-07-15T21:34:38.415Z,10.63
2023-07-15T21:37:06.864Z,10.68
2023-07-15T21:39:34.517Z,11.32
2023-07-15T21:42:02.029Z,11.10
2023-07-15T21:44:29.890Z,11.33
2023-07-15T21:46:57.443Z,11.02
2023-07-15T21:49:24.952Z,10.55
2023-07-15T21:51:52.856Z,10.52
2023-07-15T21:54:20.506Z,11.15
2023-07-15T21:56:48.136Z,10.57
2023-07-15T21:59:15.953Z,11.50
2023-07-15T22:01:43.642Z,11.35
2023-07-15T22:04:11.641Z,10.38
2023-07-15T22:06:39.187Z,10.70
2023-07-15T22:09:06.766Z,10.40
2023-07-15T22:11:34.581Z,9.60
2023-07-15T22:14:03.628Z,10.13
2023-07-15T22:16:31.263Z,10.75
2023-07-15T22:18:59.243Z,11.48
2023-07-15T22:21:26.771Z,9.87
2023-07-15T22:23:54.311Z,10.25
2023-07-15T22:26:22.234Z,10.13
2023-07-15T22:28:49.807Z,11.55
2023-07-15T22:31:17.443Z,11.18
2023-07-15T22:33:45.364Z,9.43
2023-07-15T22:36:13.049Z,10.10
2023-07-15T22:38:40.678Z,10.63
2023-07-15T22:41:08.511Z,10.13
2023-07-15T22:43:36.060Z,10.48
2023-07-15T22:46:03.907Z,10.80
2023-07-15T22:48:31.880Z,9.65
2023-07-15T22:50:59.517Z,9.43
2023-07-15T22:53:27.061Z,11.95
2023-07-15T22:55:55.783Z,12.82
2023-07-15T22:58:23.642Z,11.27
2023-07-15T23:00:56.844Z,10.07
2023-07-15T23:03:25.980Z,10.13
2023-07-15T23:05:53.572Z,10.32
2023-07-15T23:08:21.123Z,9.98
2023-07-15T23:10:49.022Z,8.83
2023-07-15T23:13:16.549Z,9.30
2023-07-15T23:15:44.101Z,8.63
2023-07-15T23:18:11.985Z,10.32
2023-07-15T23:20:39.503Z,11.15
2023-07-15T23:23:16.601Z,9.37
2023-07-15T23:25:46.822Z,9.23
2023-07-15T23:28:15.167Z,8.82
2023-07-15T23:30:49.301Z,9.13
2023-07-15T23:33:17.436Z,10.02
2023-07-15T23:35:45.749Z,10.43
2023-07-15T23:38:13.647Z,8.77
2023-07-15T23:40:41.474Z,10.27
2023-07-15T23:43:13.116Z,9.80
2023-07-15T23:45:41.035Z,8.98
2023-07-15T23:48:08.821Z,9.00
2023-07-15T23:50:36.450Z,8.65
2023-07-15T23:53:04.266Z,8.82
2023-07-15T23:55:31.867Z,8.85
2023-07-15T23:58:01.104Z,9.30
